sensor_id;sensor_type;location;lat;lon;timestamp;temperature;humidity
7900;DHT22;3995;50.856;4.404;2023-03-01T00:00:20;8.30;36.20
7900;DHT22;3995;50.856;4.404;2023-03-01T00:02:47;8.30;36.20
7900;DHT22;3995;50.856;4.404;2023-03-01T00:05:16;8.30;36.20
7900;DHT22;3995;50.856;4.404;2023-03-01T00:07:43;8.30;36.30
7900;DHT22;3995;50.856;4.404;2023-03-01T00:10:11;8.20;36.20
7900;DHT22;3995;50.856;4.404;2023-03-01T00:12:38;8.20;36.30
7900;DHT22;3995;50.856;4.404;2023-03-01T00:15:06;8.20;36.30
7900;DHT22;3995;50.856;4.404;2023-03-01T00:17:34;8.20;36.40
7900;DHT22;3995;50.856;4.404;2023-03-01T00:20:01;8.20;36.50
7900;DHT22;3995;50.856;4.404;2023-03-01T00:22:30;8.20;36.60
7900;DHT22;3995;50.856;4.404;2023-03-01T00:24:57;8.20;36.60
7900;DHT22;3995;50.856;4.404;2023-03-01T00:27:24;8.20;36.60
7900;DHT22;3995;50.856;4.404;2023-03-01T00:29:52;8.20;36.50
7900;DHT22;3995;50.856;4.404;2023-03-01T00:32:19;8.20;36.60
7900;DHT22;3995;50.856;4.404;2023-03-01T00:34:47;8.20;36.60
7900;DHT22;3995;50.856;4.404;2023-03-01T00:37:19;8.30;36.70
7900;DHT22;3995;50.856;4.404;2023-03-01T00:39:48;8.30;36.70
7900;DHT22;3995;50.856;4.404;2023-03-01T00:42:16;8.30;36.50
7900;DHT22;3995;50.856;4.404;2023-03-01T00:44:44;8.30;36.60
7900;DHT22;3995;50.856;4.404;2023-03-01T00:47:11;8.30;36.70
7900;DHT22;3995;50.856;4.404;2023-03-01T00:49:39;8.30;36.60
7900;DHT22;3995;50.856;4.404;2023-03-01T00:52:06;8.30;36.60
7900;DHT22;3995;50.856;4.404;2023-03-01T00:54:33;8.30;36.70
7900;DHT22;3995;50.856;4.404;2023-03-01T00:57:03;8.30;36.60
7900;DHT22;3995;50.856;4.404;2023-03-01T00:59:30;8.30;36.70
7900;DHT22;3995;50.856;4.404;2023-03-01T01:01:57;8.30;36.70
7900;DHT22;3995;50.856;4.404;2023-03-01T01:04:24;8.20;36.70
7900;DHT22;3995;50.856;4.404;2023-03-01T01:06:51;8.20;36.80
7900;DHT22;3995;50.856;4.404;2023-03-01T01:09:19;8.20;36.70
7900;DHT22;3995;50.856;4.404;2023-03-01T01:11:47;8.20;36.80
7900;DHT22;3995;50.856;4.404;2023-03-01T01:14:16;8.20;36.80
7900;DHT22;3995;50.856;4.404;2023-03-01T01:16:44;8.20;36.70
7900;DHT22;3995;50.856;4.404;2023-03-01T01:19:12;8.20;36.70
7900;DHT22;3995;50.856;4.404;2023-03-01T01:21:39;8.20;36.80
7900;DHT22;3995;50.856;4.404;2023-03-01T01:24:08;8.20;36.80
7900;DHT22;3995;50.856;4.404;2023-03-01T01:26:36;8.10;36.80
7900;DHT22;3995;50.856;4.404;2023-03-01T01:29:04;8.10;36.90
7900;DHT22;3995;50.856;4.404;2023-03-01T01:31:34;8.10;37.00
7900;DHT22;3995;50.856;4.404;2023-03-01T01:34:02;8.10;37.00
7900;DHT22;3995;50.856;4.404;2023-03-01T01:36:30;8.10;37.00
7900;DHT22;3995;50.856;4.404;2023-03-01T01:38:57;8.00;37.00
7900;DHT22;3995;50.856;4.404;2023-03-01T01:41:26;8.00;37.00
7900;DHT22;3995;50.856;4.404;2023-03-01T01:44:12;8.00;37.10
7900;DHT22;3995;50.856;4.404;2023-03-01T01:46:43;8.10;37.10
7900;DHT22;3995;50.856;4.404;2023-03-01T01:49:23;8.00;37.00
7900;DHT22;3995;50.856;4.404;2023-03-01T01:51:56;8.10;37.00
7900;DHT22;3995;50.856;4.404;2023-03-01T01:54:26;8.00;37.00
7900;DHT22;3995;50.856;4.404;2023-03-01T01:56:57;8.00;37.00
7900;DHT22;3995;50.856;4.404;2023-03-01T01:59:27;8.00;37.00
7900;DHT22;3995;50.856;4.404;2023-03-01T02:01:59;7.90;37.00
7900;DHT22;3995;50.856;4.404;2023-03-01T02:04:27;7.90;37.00
7900;DHT22;3995;50.856;4.404;2023-03-01T02:06:58;7.90;37.10
7900;DHT22;3995;50.856;4.404;2023-03-01T02:09:26;7.90;37.10
7900;DHT22;3995;50.856;4.404;2023-03-01T02:11:54;7.80;37.10
7900;DHT22;3995;50.856;4.404;2023-03-01T02:14:22;7.90;37.20
7900;DHT22;3995;50.856;4.404;2023-03-01T02:16:49;7.80;37.10
7900;DHT22;3995;50.856;4.404;2023-03-01T02:19:26;7.80;37.20
7900;DHT22;3995;50.856;4.404;2023-03-01T02:22:03;7.80;37.40
7900;DHT22;3995;50.856;4.404;2023-03-01T02:24:40;7.80;37.70
7900;DHT22;3995;50.856;4.404;2023-03-01T02:27:12;7.80;37.60
7900;DHT22;3995;50.856;4.404;2023-03-01T02:29:41;7.80;37.60
7900;DHT22;3995;50.856;4.404;2023-03-01T02:32:11;7.80;37.50
7900;DHT22;3995;50.856;4.404;2023-03-01T02:34:38;7.80;37.50
7900;DHT22;3995;50.856;4.404;2023-03-01T02:37:08;7.80;37.50
7900;DHT22;3995;50.856;4.404;2023-03-01T02:39:40;7.80;37.50
7900;DHT22;3995;50.856;4.404;2023-03-01T02:42:12;7.70;37.60
7900;DHT22;3995;50.856;4.404;2023-03-01T02:44:41;7.70;37.60
7900;DHT22;3995;50.856;4.404;2023-03-01T02:47:08;7.70;37.80
7900;DHT22;3995;50.856;4.404;2023-03-01T02:49:36;7.70;37.80
7900;DHT22;3995;50.856;4.404;2023-03-01T02:52:30;7.70;37.70
7900;DHT22;3995;50.856;4.404;2023-03-01T02:55:03;7.80;37.60
7900;DHT22;3995;50.856;4.404;2023-03-01T02:57:33;7.70;37.70
7900;DHT22;3995;50.856;4.404;2023-03-01T03:00:07;7.70;37.70
7900;DHT22;3995;50.856;4.404;2023-03-01T03:02:35;7.70;37.70
7900;DHT22;3995;50.856;4.404;2023-03-01T03:05:08;7.70;37.80
7900;DHT22;3995;50.856;4.404;2023-03-01T03:07:39;7.70;37.90
7900;DHT22;3995;50.856;4.404;2023-03-01T03:10:09;7.70;37.90
7900;DHT22;3995;50.856;4.404;2023-03-01T03:12:36;7.70;37.80
7900;DHT22;3995;50.856;4.404;2023-03-01T03:15:09;7.70;37.80
7900;DHT22;3995;50.856;4.404;2023-03-01T03:17:38;7.80;37.80
7900;DHT22;3995;50.856;4.404;2023-03-01T03:20:07;7.70;37.70
7900;DHT22;3995;50.856;4.404;2023-03-01T03:22:39;7.70;37.60
7900;DHT22;3995;50.856;4.404;2023-03-01T03:25:08;7.70;37.70
7900;DHT22;3995;50.856;4.404;2023-03-01T03:27:36;7.70;37.90
7900;DHT22;3995;50.856;4.404;2023-03-01T03:30:06;7.70;38.00
7900;DHT22;3995;50.856;4.404;2023-03-01T03:32:35;7.70;38.00
7900;DHT22;3995;50.856;4.404;2023-03-01T03:35:02;7.70;37.90
7900;DHT22;3995;50.856;4.404;2023-03-01T03:37:35;7.70;37.90
7900;DHT22;3995;50.856;4.404;2023-03-01T03:40:19;7.70;38.20
7900;DHT22;3995;50.856;4.404;2023-03-01T03:42:46;7.70;37.80
7900;DHT22;3995;50.856;4.404;2023-03-01T03:45:15;7.70;37.80
7900;DHT22;3995;50.856;4.404;2023-03-01T03:47:42;7.70;37.80
7900;DHT22;3995;50.856;4.404;2023-03-01T03:50:11;7.70;37.80
7900;DHT22;3995;50.856;4.404;2023-03-01T03:52:38;7.60;37.80
7900;DHT22;3995;50.856;4.404;2023-03-01T03:55:07;7.60;37.80
7900;DHT22;3995;50.856;4.404;2023-03-01T03:57:36;7.50;37.80
7900;DHT22;3995;50.856;4.404;2023-03-01T04:00:04;7.50;37.90
7900;DHT22;3995;50.856;4.404;2023-03-01T04:02:39;7.50;38.00
7900;DHT22;3995;50.856;4.404;2023-03-01T04:05:08;7.40;38.00
7900;DHT22;3995;50.856;4.404;2023-03-01T04:07:36;7.40;38.10
7900;DHT22;3995;50.856;4.404;2023-03-01T04:10:05;7.40;38.10
7900;DHT22;3995;50.856;4.404;2023-03-01T04:12:33;7.30;38.10
7900;DHT22;3995;50.856;4.404;2023-03-01T04:15:00;7.30;38.20
7900;DHT22;3995;50.856;4.404;2023-03-01T04:17:28;7.30;38.20
7900;DHT22;3995;50.856;4.404;2023-03-01T04:19:57;7.30;38.30
7900;DHT22;3995;50.856;4.404;2023-03-01T04:22:24;7.30;38.40
7900;DHT22;3995;50.856;4.404;2023-03-01T04:24:55;7.20;38.40
7900;DHT22;3995;50.856;4.404;2023-03-01T04:27:22;7.20;38.40
7900;DHT22;3995;50.856;4.404;2023-03-01T04:29:49;7.20;38.40
7900;DHT22;3995;50.856;4.404;2023-03-01T04:32:16;7.20;38.40
7900;DHT22;3995;50.856;4.404;2023-03-01T04:34:44;7.20;38.40
7900;DHT22;3995;50.856;4.404;2023-03-01T04:37:13;7.20;38.40
7900;DHT22;3995;50.856;4.404;2023-03-01T04:39:41;7.20;38.50
7900;DHT22;3995;50.856;4.404;2023-03-01T04:42:11;7.10;38.50
7900;DHT22;3995;50.856;4.404;2023-03-01T04:44:38;7.10;38.50
7900;DHT22;3995;50.856;4.404;2023-03-01T04:47:05;7.10;38.60
7900;DHT22;3995;50.856;4.404;2023-03-01T04:49:33;7.00;38.60
7900;DHT22;3995;50.856;4.404;2023-03-01T04:52:00;7.10;38.70
7900;DHT22;3995;50.856;4.404;2023-03-01T04:54:29;7.10;38.80
7900;DHT22;3995;50.856;4.404;2023-03-01T04:56:56;7.00;38.70
7900;DHT22;3995;50.856;4.404;2023-03-01T04:59:24;7.00;38.80
7900;DHT22;3995;50.856;4.404;2023-03-01T05:01:51;7.00;38.80
7900;DHT22;3995;50.856;4.404;2023-03-01T05:04:21;7.00;38.90
7900;DHT22;3995;50.856;4.404;2023-03-01T05:06:48;7.00;38.90
7900;DHT22;3995;50.856;4.404;2023-03-01T05:09:16;7.00;39.00
7900;DHT22;3995;50.856;4.404;2023-03-01T05:11:44;7.00;39.10
7900;DHT22;3995;50.856;4.404;2023-03-01T05:14:12;7.10;39.20
7900;DHT22;3995;50.856;4.404;2023-03-01T05:16:39;7.10;39.10
7900;DHT22;3995;50.856;4.404;2023-03-01T05:19:06;7.10;39.00
7900;DHT22;3995;50.856;4.404;2023-03-01T05:21:41;7.20;38.90
7900;DHT22;3995;50.856;4.404;2023-03-01T05:24:22;7.10;38.90
7900;DHT22;3995;50.856;4.404;2023-03-01T05:26:50;7.10;39.10
7900;DHT22;3995;50.856;4.404;2023-03-01T05:29:18;7.20;39.10
7900;DHT22;3995;50.856;4.404;2023-03-01T05:31:51;7.10;38.90
7900;DHT22;3995;50.856;4.404;2023-03-01T05:34:18;7.10;38.80
7900;DHT22;3995;50.856;4.404;2023-03-01T05:36:48;7.10;38.80
7900;DHT22;3995;50.856;4.404;2023-03-01T05:39:16;7.10;38.90
7900;DHT22;3995;50.856;4.404;2023-03-01T05:41:44;7.00;39.00
7900;DHT22;3995;50.856;4.404;2023-03-01T05:44:13;7.10;39.10
7900;DHT22;3995;50.856;4.404;2023-03-01T05:46:40;7.10;39.10
7900;DHT22;3995;50.856;4.404;2023-03-01T05:49:07;7.10;39.10
7900;DHT22;3995;50.856;4.404;2023-03-01T05:51:34;7.10;39.00
7900;DHT22;3995;50.856;4.404;2023-03-01T05:54:01;7.00;39.00
7900;DHT22;3995;50.856;4.404;2023-03-01T05:56:32;7.00;39.00
7900;DHT22;3995;50.856;4.404;2023-03-01T05:59:00;7.00;39.10
7900;DHT22;3995;50.856;4.404;2023-03-01T06:01:29;7.00;39.20
7900;DHT22;3995;50.856;4.404;2023-03-01T06:03:56;7.00;39.10
7900;DHT22;3995;50.856;4.404;2023-03-01T06:06:23;7.00;39.10
7900;DHT22;3995;50.856;4.404;2023-03-01T06:08:51;7.00;39.20
7900;DHT22;3995;50.856;4.404;2023-03-01T06:11:18;7.00;39.20
7900;DHT22;3995;50.856;4.404;2023-03-01T06:13:46;7.00;39.20
7900;DHT22;3995;50.856;4.404;2023-03-01T06:16:13;7.00;39.20
7900;DHT22;3995;50.856;4.404;2023-03-01T06:18:42;7.00;39.20
7900;DHT22;3995;50.856;4.404;2023-03-01T06:21:09;7.00;39.20
7900;DHT22;3995;50.856;4.404;2023-03-01T06:23:36;6.90;39.20
7900;DHT22;3995;50.856;4.404;2023-03-01T06:26:06;6.90;39.40
7900;DHT22;3995;50.856;4.404;2023-03-01T06:28:33;7.00;39.50
7900;DHT22;3995;50.856;4.404;2023-03-01T06:31:00;6.90;39.30
7900;DHT22;3995;50.856;4.404;2023-03-01T06:33:27;7.00;39.40
7900;DHT22;3995;50.856;4.404;2023-03-01T06:35:56;7.00;39.50
7900;DHT22;3995;50.856;4.404;2023-03-01T06:38:24;6.90;39.40
7900;DHT22;3995;50.856;4.404;2023-03-01T06:40:52;7.00;39.70
7900;DHT22;3995;50.856;4.404;2023-03-01T06:43:20;7.00;39.70
7900;DHT22;3995;50.856;4.404;2023-03-01T06:45:47;7.00;39.60
7900;DHT22;3995;50.856;4.404;2023-03-01T06:48:14;6.90;39.40
7900;DHT22;3995;50.856;4.404;2023-03-01T06:50:42;7.00;39.60
7900;DHT22;3995;50.856;4.404;2023-03-01T06:53:10;7.00;39.60
7900;DHT22;3995;50.856;4.404;2023-03-01T06:55:37;7.00;39.60
7900;DHT22;3995;50.856;4.404;2023-03-01T06:58:05;6.90;39.60
7900;DHT22;3995;50.856;4.404;2023-03-01T07:00:32;6.90;39.50
7900;DHT22;3995;50.856;4.404;2023-03-01T07:03:00;6.90;39.60
7900;DHT22;3995;50.856;4.404;2023-03-01T07:05:28;6.90;39.60
7900;DHT22;3995;50.856;4.404;2023-03-01T07:07:55;6.90;39.70
7900;DHT22;3995;50.856;4.404;2023-03-01T07:10:23;6.90;39.70
7900;DHT22;3995;50.856;4.404;2023-03-01T07:12:50;6.90;39.80
7900;DHT22;3995;50.856;4.404;2023-03-01T07:15:20;6.90;39.80
7900;DHT22;3995;50.856;4.404;2023-03-01T07:17:48;6.90;39.80
7900;DHT22;3995;50.856;4.404;2023-03-01T07:20:16;6.90;39.90
7900;DHT22;3995;50.856;4.404;2023-03-01T07:22:43;6.90;40.00
7900;DHT22;3995;50.856;4.404;2023-03-01T07:25:11;6.90;39.80
7900;DHT22;3995;50.856;4.404;2023-03-01T07:27:39;6.90;39.80
7900;DHT22;3995;50.856;4.404;2023-03-01T07:30:08;7.00;40.00
7900;DHT22;3995;50.856;4.404;2023-03-01T07:32:35;7.00;40.00
7900;DHT22;3995;50.856;4.404;2023-03-01T07:35:02;7.00;40.00
7900;DHT22;3995;50.856;4.404;2023-03-01T07:37:29;7.00;39.90
7900;DHT22;3995;50.856;4.404;2023-03-01T07:39:56;7.00;39.90
7900;DHT22;3995;50.856;4.404;2023-03-01T07:42:23;7.10;39.90
7900;DHT22;3995;50.856;4.404;2023-03-01T07:44:52;7.10;39.90
7900;DHT22;3995;50.856;4.404;2023-03-01T07:47:19;7.10;39.90
7900;DHT22;3995;50.856;4.404;2023-03-01T07:49:47;7.10;39.80
7900;DHT22;3995;50.856;4.404;2023-03-01T07:52:14;7.10;39.80
7900;DHT22;3995;50.856;4.404;2023-03-01T07:54:43;7.10;39.90
7900;DHT22;3995;50.856;4.404;2023-03-01T07:57:10;7.10;39.90
7900;DHT22;3995;50.856;4.404;2023-03-01T07:59:38;7.10;39.90
7900;DHT22;3995;50.856;4.404;2023-03-01T08:02:07;7.10;39.90
7900;DHT22;3995;50.856;4.404;2023-03-01T08:04:35;7.00;39.90
7900;DHT22;3995;50.856;4.404;2023-03-01T08:07:04;7.00;40.00
7900;DHT22;3995;50.856;4.404;2023-03-01T08:09:33;7.10;40.00
7900;DHT22;3995;50.856;4.404;2023-03-01T08:12:01;7.10;40.00
7900;DHT22;3995;50.856;4.404;2023-03-01T08:14:30;7.10;40.10
7900;DHT22;3995;50.856;4.404;2023-03-01T08:16:57;7.10;40.00
7900;DHT22;3995;50.856;4.404;2023-03-01T08:19:26;7.10;39.90
7900;DHT22;3995;50.856;4.404;2023-03-01T08:21:53;7.10;40.00
7900;DHT22;3995;50.856;4.404;2023-03-01T08:24:23;7.10;40.20
7900;DHT22;3995;50.856;4.404;2023-03-01T08:26:51;7.10;40.20
7900;DHT22;3995;50.856;4.404;2023-03-01T08:29:18;7.10;40.20
7900;DHT22;3995;50.856;4.404;2023-03-01T08:31:45;7.00;40.10
7900;DHT22;3995;50.856;4.404;2023-03-01T08:34:15;7.00;40.20
7900;DHT22;3995;50.856;4.404;2023-03-01T08:36:45;7.00;40.20
7900;DHT22;3995;50.856;4.404;2023-03-01T08:39:15;7.10;40.30
7900;DHT22;3995;50.856;4.404;2023-03-01T08:41:44;7.00;40.30
7900;DHT22;3995;50.856;4.404;2023-03-01T08:44:12;7.00;40.40
7900;DHT22;3995;50.856;4.404;2023-03-01T08:46:41;7.00;40.40
7900;DHT22;3995;50.856;4.404;2023-03-01T08:49:10;7.00;40.40
7900;DHT22;3995;50.856;4.404;2023-03-01T08:51:38;7.00;40.50
7900;DHT22;3995;50.856;4.404;2023-03-01T08:54:09;7.00;40.50
7900;DHT22;3995;50.856;4.404;2023-03-01T08:56:38;7.10;40.50
7900;DHT22;3995;50.856;4.404;2023-03-01T08:59:05;7.00;40.50
7900;DHT22;3995;50.856;4.404;2023-03-01T09:01:33;7.00;40.40
7900;DHT22;3995;50.856;4.404;2023-03-01T09:04:00;7.00;40.40
7900;DHT22;3995;50.856;4.404;2023-03-01T09:06:30;7.00;40.40
7900;DHT22;3995;50.856;4.404;2023-03-01T09:08:58;7.00;40.50
7900;DHT22;3995;50.856;4.404;2023-03-01T09:11:28;7.00;40.70
7900;DHT22;3995;50.856;4.404;2023-03-01T09:13:55;7.00;40.70
7900;DHT22;3995;50.856;4.404;2023-03-01T09:16:23;7.10;40.70
7900;DHT22;3995;50.856;4.404;2023-03-01T09:18:52;7.10;40.70
7900;DHT22;3995;50.856;4.404;2023-03-01T09:21:20;7.10;40.80
7900;DHT22;3995;50.856;4.404;2023-03-01T09:23:48;7.20;40.60
7900;DHT22;3995;50.856;4.404;2023-03-01T09:26:17;7.20;40.60
7900;DHT22;3995;50.856;4.404;2023-03-01T09:28:47;7.20;40.50
7900;DHT22;3995;50.856;4.404;2023-03-01T09:31:15;7.30;40.60
7900;DHT22;3995;50.856;4.404;2023-03-01T09:33:45;7.30;40.50
7900;DHT22;3995;50.856;4.404;2023-03-01T09:36:14;7.40;40.50
7900;DHT22;3995;50.856;4.404;2023-03-01T09:38:41;7.50;40.70
7900;DHT22;3995;50.856;4.404;2023-03-01T09:41:26;7.50;40.80
7900;DHT22;3995;50.856;4.404;2023-03-01T09:44:01;7.70;40.90
7900;DHT22;3995;50.856;4.404;2023-03-01T09:46:38;7.70;40.70
7900;DHT22;3995;50.856;4.404;2023-03-01T09:49:12;7.80;40.50
7900;DHT22;3995;50.856;4.404;2023-03-01T09:51:43;7.90;40.50
7900;DHT22;3995;50.856;4.404;2023-03-01T09:54:14;7.90;40.10
7900;DHT22;3995;50.856;4.404;2023-03-01T09:56:46;8.00;40.00
7900;DHT22;3995;50.856;4.404;2023-03-01T09:59:21;8.10;39.70
7900;DHT22;3995;50.856;4.404;2023-03-01T10:01:57;8.20;39.50
7900;DHT22;3995;50.856;4.404;2023-03-01T10:04:41;8.30;39.30
7900;DHT22;3995;50.856;4.404;2023-03-01T10:07:22;8.40;39.30
7900;DHT22;3995;50.856;4.404;2023-03-01T10:09:53;8.40;39.20
7900;DHT22;3995;50.856;4.404;2023-03-01T10:12:23;8.50;39.00
7900;DHT22;3995;50.856;4.404;2023-03-01T10:14:57;8.60;38.90
7900;DHT22;3995;50.856;4.404;2023-03-01T10:17:32;8.70;38.70
7900;DHT22;3995;50.856;4.404;2023-03-01T10:20:17;8.80;38.30
7900;DHT22;3995;50.856;4.404;2023-03-01T10:22:45;9.00;38.10
7900;DHT22;3995;50.856;4.404;2023-03-01T10:25:20;9.00;38.00
7900;DHT22;3995;50.856;4.404;2023-03-01T10:27:52;9.10;37.90
7900;DHT22;3995;50.856;4.404;2023-03-01T10:30:29;9.20;37.80
7900;DHT22;3995;50.856;4.404;2023-03-01T10:32:59;9.30;37.70
7900;DHT22;3995;50.856;4.404;2023-03-01T10:35:29;9.40;37.50
7900;DHT22;3995;50.856;4.404;2023-03-01T10:38:04;9.60;37.20
7900;DHT22;3995;50.856;4.404;2023-03-01T10:40:31;9.70;36.80
7900;DHT22;3995;50.856;4.404;2023-03-01T10:43:01;9.80;36.50
7900;DHT22;3995;50.856;4.404;2023-03-01T10:45:36;10.00;35.30
7900;DHT22;3995;50.856;4.404;2023-03-01T10:48:14;10.10;35.10
7900;DHT22;3995;50.856;4.404;2023-03-01T10:50:43;10.20;35.20
7900;DHT22;3995;50.856;4.404;2023-03-01T10:53:26;10.30;35.10
7900;DHT22;3995;50.856;4.404;2023-03-01T10:55:59;10.40;35.10
7900;DHT22;3995;50.856;4.404;2023-03-01T10:58:28;10.50;35.20
7900;DHT22;3995;50.856;4.404;2023-03-01T11:00:59;10.50;35.00
7900;DHT22;3995;50.856;4.404;2023-03-01T11:03:28;10.60;34.80
7900;DHT22;3995;50.856;4.404;2023-03-01T11:06:05;10.70;34.70
7900;DHT22;3995;50.856;4.404;2023-03-01T11:08:39;10.80;34.30
7900;DHT22;3995;50.856;4.404;2023-03-01T11:11:21;10.80;34.10
7900;DHT22;3995;50.856;4.404;2023-03-01T11:13:54;10.70;33.90
7900;DHT22;3995;50.856;4.404;2023-03-01T11:16:26;10.70;33.90
7900;DHT22;3995;50.856;4.404;2023-03-01T11:21:47;10.50;33.90
7900;DHT22;3995;50.856;4.404;2023-03-01T11:24:19;10.40;33.80
7900;DHT22;3995;50.856;4.404;2023-03-01T11:26:51;10.30;34.00
7900;DHT22;3995;50.856;4.404;2023-03-01T11:29:26;10.20;34.00
7900;DHT22;3995;50.856;4.404;2023-03-01T11:32:01;10.20;34.20
7900;DHT22;3995;50.856;4.404;2023-03-01T11:34:38;10.20;34.30
7900;DHT22;3995;50.856;4.404;2023-03-01T11:37:21;10.10;34.10
7900;DHT22;3995;50.856;4.404;2023-03-01T11:39:56;10.10;33.90
7900;DHT22;3995;50.856;4.404;2023-03-01T11:42:30;10.00;33.80
7900;DHT22;3995;50.856;4.404;2023-03-01T11:45:08;10.00;33.90
7900;DHT22;3995;50.856;4.404;2023-03-01T11:47:50;9.90;34.80
7900;DHT22;3995;50.856;4.404;2023-03-01T11:50:28;9.90;34.70
7900;DHT22;3995;50.856;4.404;2023-03-01T11:53:17;9.80;34.90
7900;DHT22;3995;50.856;4.404;2023-03-01T11:56:03;9.80;35.00
7900;DHT22;3995;50.856;4.404;2023-03-01T11:58:45;9.80;35.10
7900;DHT22;3995;50.856;4.404;2023-03-01T12:01:22;9.80;34.90
7900;DHT22;3995;50.856;4.404;2023-03-01T12:04:10;9.80;34.80
7900;DHT22;3995;50.856;4.404;2023-03-01T12:06:55;9.80;34.90
7900;DHT22;3995;50.856;4.404;2023-03-01T12:09:34;9.80;34.90
7900;DHT22;3995;50.856;4.404;2023-03-01T12:12:31;9.80;34.80
7900;DHT22;3995;50.856;4.404;2023-03-01T12:18:25;9.70;34.80
7900;DHT22;3995;50.856;4.404;2023-03-01T12:21:06;9.70;35.10
7900;DHT22;3995;50.856;4.404;2023-03-01T12:24:08;9.70;35.00
7900;DHT22;3995;50.856;4.404;2023-03-01T12:26:45;9.70;34.70
7900;DHT22;3995;50.856;4.404;2023-03-01T12:29:25;9.60;34.60
7900;DHT22;3995;50.856;4.404;2023-03-01T12:32:08;9.60;34.50
7900;DHT22;3995;50.856;4.404;2023-03-01T12:37:44;9.60;34.60
7900;DHT22;3995;50.856;4.404;2023-03-01T12:40:32;9.60;34.60
7900;DHT22;3995;50.856;4.404;2023-03-01T12:43:12;9.60;34.60
7900;DHT22;3995;50.856;4.404;2023-03-01T12:45:58;9.50;34.60
7900;DHT22;3995;50.856;4.404;2023-03-01T12:48:40;9.50;34.60
7900;DHT22;3995;50.856;4.404;2023-03-01T12:51:10;9.50;34.60
7900;DHT22;3995;50.856;4.404;2023-03-01T12:53:42;9.50;34.80
7900;DHT22;3995;50.856;4.404;2023-03-01T12:56:15;9.50;34.80
7900;DHT22;3995;50.856;4.404;2023-03-01T12:58:53;9.50;34.70
7900;DHT22;3995;50.856;4.404;2023-03-01T13:01:29;9.50;35.00
7900;DHT22;3995;50.856;4.404;2023-03-01T13:04:11;9.50;35.10
7900;DHT22;3995;50.856;4.404;2023-03-01T13:06:47;9.50;35.00
7900;DHT22;3995;50.856;4.404;2023-03-01T13:09:26;9.50;35.20
7900;DHT22;3995;50.856;4.404;2023-03-01T13:11:55;9.60;35.40
7900;DHT22;3995;50.856;4.404;2023-03-01T13:14:36;9.60;35.40
7900;DHT22;3995;50.856;4.404;2023-03-01T13:17:07;9.60;35.20
7900;DHT22;3995;50.856;4.404;2023-03-01T13:19:58;9.60;35.00
7900;DHT22;3995;50.856;4.404;2023-03-01T13:22:27;9.60;34.70
7900;DHT22;3995;50.856;4.404;2023-03-01T13:25:13;9.60;34.70
7900;DHT22;3995;50.856;4.404;2023-03-01T13:27:41;9.60;34.90
7900;DHT22;3995;50.856;4.404;2023-03-01T13:30:39;9.60;35.10
7900;DHT22;3995;50.856;4.404;2023-03-01T13:33:41;9.60;35.00
7900;DHT22;3995;50.856;4.404;2023-03-01T13:36:11;9.60;34.70
7900;DHT22;3995;50.856;4.404;2023-03-01T13:38:55;9.60;34.70
7900;DHT22;3995;50.856;4.404;2023-03-01T13:41:52;9.60;34.40
7900;DHT22;3995;50.856;4.404;2023-03-01T13:44:24;9.60;34.60
7900;DHT22;3995;50.856;4.404;2023-03-01T13:46:56;9.60;34.70
7900;DHT22;3995;50.856;4.404;2023-03-01T13:49:26;9.60;34.60
7900;DHT22;3995;50.856;4.404;2023-03-01T13:51:54;9.60;34.60
7900;DHT22;3995;50.856;4.404;2023-03-01T13:54:28;9.60;34.60
7900;DHT22;3995;50.856;4.404;2023-03-01T13:56:59;9.70;34.40
7900;DHT22;3995;50.856;4.404;2023-03-01T13:59:27;9.60;34.30
7900;DHT22;3995;50.856;4.404;2023-03-01T14:01:58;9.60;34.50
7900;DHT22;3995;50.856;4.404;2023-03-01T14:04:27;9.60;34.60
7900;DHT22;3995;50.856;4.404;2023-03-01T14:07:10;9.60;34.80
7900;DHT22;3995;50.856;4.404;2023-03-01T14:09:39;9.60;34.70
7900;DHT22;3995;50.856;4.404;2023-03-01T14:12:22;9.60;34.60
7900;DHT22;3995;50.856;4.404;2023-03-01T14:14:59;9.60;34.30
7900;DHT22;3995;50.856;4.404;2023-03-01T14:17:40;9.60;34.70
7900;DHT22;3995;50.856;4.404;2023-03-01T14:20:14;9.60;34.50
7900;DHT22;3995;50.856;4.404;2023-03-01T14:22:44;9.60;34.50
7900;DHT22;3995;50.856;4.404;2023-03-01T14:25:27;9.60;34.40
7900;DHT22;3995;50.856;4.404;2023-03-01T14:27:59;9.70;34.30
7900;DHT22;3995;50.856;4.404;2023-03-01T14:30:31;9.60;34.40
7900;DHT22;3995;50.856;4.404;2023-03-01T14:33:01;9.60;35.20
7900;DHT22;3995;50.856;4.404;2023-03-01T14:35:29;9.60;34.70
7900;DHT22;3995;50.856;4.404;2023-03-01T14:37:57;9.60;34.60
7900;DHT22;3995;50.856;4.404;2023-03-01T14:40:27;9.60;34.40
7900;DHT22;3995;50.856;4.404;2023-03-01T14:42:58;9.60;34.20
7900;DHT22;3995;50.856;4.404;2023-03-01T14:45:27;9.60;34.20
7900;DHT22;3995;50.856;4.404;2023-03-01T14:47:59;9.60;34.40
7900;DHT22;3995;50.856;4.404;2023-03-01T14:50:29;9.60;34.50
7900;DHT22;3995;50.856;4.404;2023-03-01T14:53:00;9.60;34.50
7900;DHT22;3995;50.856;4.404;2023-03-01T14:55:30;9.60;34.30
7900;DHT22;3995;50.856;4.404;2023-03-01T14:58:00;9.60;34.50
7900;DHT22;3995;50.856;4.404;2023-03-01T15:00:30;9.60;34.60
7900;DHT22;3995;50.856;4.404;2023-03-01T15:03:02;9.60;34.60
7900;DHT22;3995;50.856;4.404;2023-03-01T15:05:35;9.60;34.60
7900;DHT22;3995;50.856;4.404;2023-03-01T15:08:03;9.60;34.80
7900;DHT22;3995;50.856;4.404;2023-03-01T15:10:34;9.60;34.80
7900;DHT22;3995;50.856;4.404;2023-03-01T15:13:12;9.60;34.80
7900;DHT22;3995;50.856;4.404;2023-03-01T15:15:41;9.70;34.60
7900;DHT22;3995;50.856;4.404;2023-03-01T15:18:17;9.60;34.50
7900;DHT22;3995;50.856;4.404;2023-03-01T15:20:45;9.70;34.50
7900;DHT22;3995;50.856;4.404;2023-03-01T15:23:22;9.60;34.70
7900;DHT22;3995;50.856;4.404;2023-03-01T15:25:50;9.70;34.80
7900;DHT22;3995;50.856;4.404;2023-03-01T15:28:26;9.60;34.70
7900;DHT22;3995;50.856;4.404;2023-03-01T15:30:56;9.60;34.60
7900;DHT22;3995;50.856;4.404;2023-03-01T15:33:37;9.60;34.80
7900;DHT22;3995;50.856;4.404;2023-03-01T15:36:33;9.70;35.00
7900;DHT22;3995;50.856;4.404;2023-03-01T15:39:01;9.70;35.10
7900;DHT22;3995;50.856;4.404;2023-03-01T15:41:30;9.60;35.20
7900;DHT22;3995;50.856;4.404;2023-03-01T15:44:01;9.60;35.20
7900;DHT22;3995;50.856;4.404;2023-03-01T15:46:46;9.70;35.30
7900;DHT22;3995;50.856;4.404;2023-03-01T15:49:27;9.70;35.30
7900;DHT22;3995;50.856;4.404;2023-03-01T15:51:57;9.70;35.10
7900;DHT22;3995;50.856;4.404;2023-03-01T15:54:25;9.60;34.90
7900;DHT22;3995;50.856;4.404;2023-03-01T15:56:55;9.60;34.70
7900;DHT22;3995;50.856;4.404;2023-03-01T15:59:23;9.60;34.60
7900;DHT22;3995;50.856;4.404;2023-03-01T16:01:51;9.60;34.60
7900;DHT22;3995;50.856;4.404;2023-03-01T16:04:19;9.60;34.70
7900;DHT22;3995;50.856;4.404;2023-03-01T16:06:52;9.50;34.60
7900;DHT22;3995;50.856;4.404;2023-03-01T16:09:22;9.50;34.70
7900;DHT22;3995;50.856;4.404;2023-03-01T16:11:49;9.60;34.90
7900;DHT22;3995;50.856;4.404;2023-03-01T16:14:16;9.50;34.70
7900;DHT22;3995;50.856;4.404;2023-03-01T16:16:46;9.50;34.80
7900;DHT22;3995;50.856;4.404;2023-03-01T16:19:14;9.50;34.90
7900;DHT22;3995;50.856;4.404;2023-03-01T16:21:42;9.50;35.10
7900;DHT22;3995;50.856;4.404;2023-03-01T16:24:12;9.50;35.20
7900;DHT22;3995;50.856;4.404;2023-03-01T16:26:39;9.50;35.50
7900;DHT22;3995;50.856;4.404;2023-03-01T16:29:07;9.60;35.60
7900;DHT22;3995;50.856;4.404;2023-03-01T16:31:35;9.60;35.50
7900;DHT22;3995;50.856;4.404;2023-03-01T16:34:04;9.60;35.50
7900;DHT22;3995;50.856;4.404;2023-03-01T16:36:31;9.60;35.40
7900;DHT22;3995;50.856;4.404;2023-03-01T16:38:59;9.60;35.40
7900;DHT22;3995;50.856;4.404;2023-03-01T16:41:28;9.60;35.50
7900;DHT22;3995;50.856;4.404;2023-03-01T16:43:55;9.60;35.50
7900;DHT22;3995;50.856;4.404;2023-03-01T16:46:26;9.60;35.60
7900;DHT22;3995;50.856;4.404;2023-03-01T16:48:54;9.60;35.60
7900;DHT22;3995;50.856;4.404;2023-03-01T16:51:23;9.60;35.70